createdAt,value
2018-05-26T00:00:29.112Z,21.10
2018-05-26T00:02:55.958Z,21.10
2018-05-26T00:05:22.931Z,21.10
2018-05-26T00:07:49.895Z,21.10
2018-05-26T00:10:16.841Z,21.10
2018-05-26T00:12:43.704Z,21.10
2018-05-26T00:15:10.668Z,21.10
2018-05-26T00:17:37.603Z,21.20
2018-05-26T00:20:04.475Z,21.20
2018-05-26T00:22:31.424Z,21.20
2018-05-26T00:24:58.266Z,21.10
2018-05-26T00:27:25.168Z,21.10
2018-05-26T00:29:52.015Z,21.00
2018-05-26T00:32:18.896Z,21.00
2018-05-26T00:34:45.894Z,20.90
2018-05-26T00:37:12.695Z,20.80
2018-05-26T00:39:39.592Z,20.80
2018-05-26T00:42:06.443Z,20.70
2018-05-26T00:44:33.313Z,20.60
2018-05-26T00:47:00.560Z,20.60
2018-05-26T00:49:27.491Z,20.60
2018-05-26T00:51:54.435Z,20.60
2018-05-26T00:54:21.391Z,20.60
2018-05-26T00:56:48.347Z,20.50
2018-05-26T00:59:15.311Z,20.50
2018-05-26T01:01:42.220Z,20.50
2018-05-26T01:04:09.062Z,20.50
2018-05-26T01:06:35.994Z,20.50
2018-05-26T01:09:02.853Z,20.40
2018-05-26T01:11:29.802Z,20.30
2018-05-26T01:13:56.671Z,20.40
2018-05-26T01:16:23.521Z,20.40
2018-05-26T01:18:50.379Z,20.40
2018-05-26T01:21:17.227Z,20.50
2018-05-26T01:23:44.092Z,20.50
2018-05-26T01:26:10.950Z,20.30
2018-05-26T01:28:37.810Z,20.10
2018-05-26T01:31:04.788Z,20.00
2018-05-26T01:33:31.638Z,20.00
2018-05-26T01:35:58.572Z,20.10
2018-05-26T01:38:25.454Z,20.10
2018-05-26T01:40:52.299Z,20.10
2018-05-26T01:43:19.154Z,20.10
2018-05-26T01:45:46.102Z,20.00
2018-05-26T01:48:13.048Z,20.00
2018-05-26T01:50:39.925Z,19.90
2018-05-26T01:53:06.790Z,19.90
2018-05-26T01:55:33.652Z,19.90
2018-05-26T01:58:00.596Z,19.90
2018-05-26T02:00:27.443Z,19.90
2018-05-26T02:02:54.290Z,20.00
2018-05-26T02:05:21.150Z,19.80
2018-05-26T02:07:48.044Z,19.80
2018-05-26T02:10:14.901Z,19.80
2018-05-26T02:12:41.784Z,19.80
2018-05-26T02:15:08.670Z,19.80
2018-05-26T02:17:35.975Z,19.80
2018-05-26T02:20:03.663Z,19.80
2018-05-26T02:22:30.585Z,19.80
2018-05-26T02:24:57.495Z,19.80
2018-05-26T02:27:24.363Z,19.80
2018-05-26T02:29:51.269Z,19.70
2018-05-26T02:32:18.124Z,19.70
2018-05-26T02:34:45.112Z,19.70
2018-05-26T02:37:12.049Z,19.80
2018-05-26T02:39:38.949Z,19.70
2018-05-26T02:42:05.810Z,19.70
2018-05-26T02:44:32.782Z,19.70
2018-05-26T02:46:59.651Z,19.60
2018-05-26T02:49:26.536Z,19.60
2018-05-26T02:51:53.419Z,19.50
2018-05-26T02:54:20.355Z,19.40
2018-05-26T02:56:47.283Z,19.20
2018-05-26T02:59:14.358Z,19.20
2018-05-26T03:01:41.248Z,19.10
2018-05-26T03:04:08.251Z,19.30
2018-05-26T03:06:35.649Z,19.40
2018-05-26T03:09:02.508Z,19.40
2018-05-26T03:11:29.365Z,19.40
2018-05-26T03:13:56.254Z,19.20
2018-05-26T03:16:23.187Z,19.30
2018-05-26T03:18:50.038Z,19.20
2018-05-26T03:21:16.921Z,19.20
2018-05-26T03:23:43.771Z,19.20
2018-05-26T03:26:10.607Z,19.20
2018-05-26T03:28:37.487Z,19.10
2018-05-26T03:31:04.438Z,19.00
2018-05-26T03:33:31.384Z,19.20
2018-05-26T03:35:58.267Z,19.20
2018-05-26T03:38:25.204Z,19.10
2018-05-26T03:40:52.062Z,19.10
2018-05-26T03:43:18.923Z,19.20
2018-05-26T03:45:45.783Z,19.20
2018-05-26T03:48:12.635Z,19.30
2018-05-26T03:50:39.563Z,19.40
2018-05-26T03:53:06.868Z,19.60
2018-05-26T03:55:45.617Z,19.60
2018-05-26T04:01:13.440Z,19.70
2018-05-26T04:03:40.292Z,19.70
2018-05-26T04:06:07.264Z,19.70
2018-05-26T04:08:34.082Z,19.70
2018-05-26T04:11:01.043Z,19.60
2018-05-26T04:13:27.902Z,19.60
2018-05-26T04:15:54.769Z,19.50
2018-05-26T04:18:21.646Z,19.60
2018-05-26T04:20:48.519Z,19.50
2018-05-26T04:23:15.372Z,19.60
2018-05-26T04:25:42.249Z,19.60
2018-05-26T04:28:09.169Z,19.80
2018-05-26T04:30:36.129Z,19.90
2018-05-26T04:33:03.160Z,20.00
2018-05-26T04:35:30.058Z,20.20
2018-05-26T04:37:56.888Z,20.30
2018-05-26T04:40:23.733Z,20.40
2018-05-26T04:42:50.595Z,20.50
2018-05-26T04:45:17.465Z,20.60
2018-05-26T04:47:44.406Z,20.60
2018-05-26T04:50:11.296Z,20.50
2018-05-26T04:52:38.233Z,20.50
2018-05-26T04:55:05.114Z,20.40
2018-05-26T04:57:32.063Z,20.30
2018-05-26T04:59:59.001Z,20.40
2018-05-26T05:02:25.964Z,20.50
2018-05-26T05:04:52.807Z,20.60
2018-05-26T05:07:19.666Z,20.80
2018-05-26T05:09:46.556Z,20.90
2018-05-26T05:12:13.498Z,20.90
2018-05-26T05:14:40.361Z,21.00
2018-05-26T05:17:07.320Z,21.10
2018-05-26T05:19:34.286Z,21.10
2018-05-26T05:22:01.145Z,21.20
2018-05-26T05:24:28.015Z,21.40
2018-05-26T05:26:54.957Z,21.50
2018-05-26T05:29:21.911Z,21.50
2018-05-26T05:31:48.779Z,21.50
2018-05-26T05:34:15.647Z,21.60
2018-05-26T05:36:42.575Z,21.70
2018-05-26T05:39:09.425Z,21.80
2018-05-26T05:41:36.383Z,21.80
2018-05-26T05:44:03.620Z,22.00
2018-05-26T05:46:30.880Z,22.00
2018-05-26T05:48:58.156Z,22.10
2018-05-26T05:51:25.154Z,22.10
2018-05-26T05:53:52.018Z,22.10
2018-05-26T05:56:19.031Z,22.20
2018-05-26T05:58:45.838Z,22.20
2018-05-26T06:01:12.683Z,22.20
2018-05-26T06:03:39.543Z,22.30
2018-05-26T06:06:06.513Z,22.20
2018-05-26T06:08:33.397Z,22.20
2018-05-26T06:11:00.410Z,22.30
2018-05-26T06:13:27.404Z,22.30
2018-05-26T06:15:54.336Z,22.40
2018-05-26T06:18:21.183Z,22.40
2018-05-26T06:20:48.047Z,22.50
2018-05-26T06:23:14.881Z,22.50
2018-05-26T06:25:41.775Z,22.60
2018-05-26T06:28:08.813Z,22.60
2018-05-26T06:30:35.766Z,22.70
2018-05-26T06:33:02.735Z,22.80
2018-05-26T06:35:29.695Z,22.80
2018-05-26T06:37:56.534Z,22.90
2018-05-26T06:40:23.391Z,22.90
2018-05-26T07:39:47.203Z,22.50
2018-05-26T07:42:14.191Z,22.50
2018-05-26T07:44:41.116Z,22.90
2018-05-26T07:47:08.424Z,23.60
2018-05-26T07:49:35.255Z,23.60
2018-05-26T07:52:02.153Z,23.80
2018-05-26T07:54:29.008Z,24.10
2018-05-26T07:56:55.873Z,24.10
2018-05-26T07:59:22.738Z,24.20
2018-05-26T08:01:49.834Z,24.30
2018-05-26T08:04:16.714Z,24.40
2018-05-26T08:06:43.555Z,24.40
2018-05-26T08:09:10.458Z,24.40
2018-05-26T08:11:37.296Z,24.40
2018-05-26T08:14:04.154Z,24.60
2018-05-26T08:16:31.043Z,24.70
2018-05-26T08:18:57.882Z,24.70
2018-05-26T08:21:24.744Z,24.80
2018-05-26T08:23:51.617Z,24.90
2018-05-26T08:26:18.882Z,24.80
2018-05-26T08:28:46.134Z,24.90
2018-05-26T08:31:13.036Z,24.90
2018-05-26T08:33:39.911Z,25.00
2018-05-26T08:36:06.824Z,25.00
2018-05-26T08:38:33.699Z,25.00
2018-05-26T08:41:00.987Z,25.00
2018-05-26T08:43:27.955Z,25.00
2018-05-26T08:45:54.820Z,25.10
2018-05-26T08:48:21.691Z,25.30
2018-05-26T08:50:48.551Z,25.30
2018-05-26T08:53:15.576Z,25.30
2018-05-26T08:55:42.511Z,25.40
2018-05-26T08:58:09.413Z,25.50
2018-05-26T09:00:36.409Z,25.50
2018-05-26T09:03:03.324Z,25.60
2018-05-26T09:05:30.289Z,25.60
2018-05-26T09:07:57.155Z,25.80
2018-05-26T09:10:24.031Z,25.90
2018-05-26T09:12:51.044Z,25.90
2018-05-26T09:15:17.916Z,26.00
2018-05-26T09:17:44.851Z,26.00
2018-05-26T09:20:12.096Z,26.00
2018-05-26T09:22:39.358Z,26.00
2018-05-26T09:25:06.683Z,26.10
2018-05-26T09:27:33.457Z,26.10
2018-05-26T09:30:00.317Z,26.30
2018-05-26T09:32:27.248Z,26.40
2018-05-26T09:34:54.136Z,26.40
2018-05-26T09:37:21.051Z,26.20
2018-05-26T09:39:47.887Z,26.10
2018-05-26T09:42:15.151Z,26.10
2018-05-26T09:44:42.451Z,26.20
2018-05-26T09:47:09.332Z,26.20
2018-05-26T09:49:36.206Z,26.20
2018-05-26T09:52:03.213Z,26.30
2018-05-26T09:54:30.099Z,26.50
2018-05-26T09:56:57.187Z,26.50
2018-05-26T09:59:24.072Z,26.70
2018-05-26T10:01:51.354Z,27.00
2018-05-26T10:04:18.242Z,27.00
2018-05-26T10:06:45.181Z,27.00
2018-05-26T10:09:12.048Z,27.00
2018-05-26T10:11:38.884Z,27.00
2018-05-26T10:14:05.859Z,27.00
2018-05-26T10:16:32.825Z,27.20
2018-05-26T10:18:59.795Z,27.30
2018-05-26T10:21:26.663Z,27.30
2018-05-26T10:23:53.553Z,27.40
2018-05-26T10:26:20.494Z,27.40
2018-05-26T10:28:47.274Z,27.30
2018-05-26T10:31:14.232Z,27.40
2018-05-26T10:33:41.479Z,27.40
2018-05-26T10:36:08.388Z,27.40
2018-05-26T10:38:35.236Z,27.40
2018-05-26T10:41:02.201Z,27.40
2018-05-26T10:43:29.071Z,27.40
2018-05-26T10:46:07.795Z,27.40
2018-05-26T10:48:34.638Z,27.50
2018-05-26T10:51:01.598Z,27.60
2018-05-26T10:53:28.889Z,27.70
2018-05-26T10:55:55.883Z,27.70
2018-05-26T10:58:22.988Z,27.80
2018-05-26T11:00:50.292Z,27.80
2018-05-26T11:03:17.243Z,27.80
2018-05-26T11:05:44.090Z,27.80
2018-05-26T11:08:11.128Z,27.90
2018-05-26T11:10:38.003Z,28.00
2018-05-26T11:13:04.887Z,28.10
2018-05-26T11:15:31.734Z,28.10
2018-05-26T11:17:58.765Z,28.10
2018-05-26T11:20:25.559Z,28.20
2018-05-26T11:22:52.458Z,28.30
2018-05-26T11:25:19.331Z,28.40
2018-05-26T11:27:46.378Z,28.40
2018-05-26T11:30:13.725Z,28.50
2018-05-26T11:32:40.648Z,28.50
2018-05-26T11:35:07.512Z,28.30
2018-05-26T11:37:34.376Z,28.30
2018-05-26T11:40:01.238Z,28.50
2018-05-26T11:42:28.086Z,28.70
2018-05-26T11:44:55.087Z,28.80
2018-05-26T11:47:21.970Z,28.80
2018-05-26T11:49:48.971Z,28.70
2018-05-26T11:52:15.947Z,28.60
2018-05-26T11:54:42.906Z,28.60
2018-05-26T11:57:09.842Z,28.50
2018-05-26T11:59:36.740Z,28.60
2018-05-26T12:02:03.948Z,28.80
2018-05-26T12:04:30.813Z,28.90
2018-05-26T12:06:57.798Z,28.90
2018-05-26T12:09:24.639Z,29.00
2018-05-26T12:11:51.523Z,29.10
2018-05-26T12:14:18.366Z,29.20
2018-05-26T12:16:45.267Z,29.20
2018-05-26T12:19:12.784Z,29.20
2018-05-26T12:21:39.733Z,29.20
2018-05-26T12:24:06.601Z,29.30
2018-05-26T12:26:33.564Z,29.30
2018-05-26T12:29:00.429Z,29.40
2018-05-26T12:31:27.452Z,29.40
2018-05-26T12:33:54.346Z,29.20
2018-05-26T12:36:21.243Z,29.20
2018-05-26T12:38:48.543Z,29.60
2018-05-26T12:41:15.507Z,29.60
2018-05-26T12:43:42.552Z,29.70
2018-05-26T12:46:09.835Z,29.70
2018-05-26T12:48:36.811Z,29.70
2018-05-26T12:51:03.647Z,29.60
2018-05-26T12:53:30.638Z,29.50
2018-05-26T12:55:57.479Z,29.50
2018-05-26T12:58:24.362Z,29.50
2018-05-26T13:00:51.294Z,29.30
2018-05-26T13:03:18.139Z,29.20
2018-05-26T13:05:45.044Z,29.10
2018-05-26T13:08:11.955Z,29.10
2018-05-26T13:10:38.827Z,29.10
2018-05-26T13:13:05.682Z,29.20
2018-05-26T13:15:32.631Z,29.40
2018-05-26T13:17:59.587Z,29.50
2018-05-26T13:20:26.463Z,29.70
2018-05-26T13:22:53.451Z,29.80
2018-05-26T13:25:20.389Z,29.90
2018-05-26T13:27:47.247Z,30.10
2018-05-26T13:30:19.977Z,30.20
2018-05-26T13:32:47.218Z,30.20
2018-05-26T13:35:14.569Z,30.30
2018-05-26T13:37:41.411Z,30.30
2018-05-26T13:40:08.306Z,30.40
2018-05-26T13:42:35.312Z,30.40
2018-05-26T13:45:02.210Z,30.50
2018-05-26T13:47:29.134Z,30.50
2018-05-26T13:49:55.994Z,30.50
2018-05-26T13:52:22.850Z,30.50
2018-05-26T13:54:49.798Z,30.40
2018-05-26T13:57:16.614Z,30.40
2018-05-26T13:59:43.452Z,30.40
2018-05-26T14:02:10.318Z,30.60
2018-05-26T14:04:37.266Z,30.70
2018-05-26T14:07:04.104Z,30.70
2018-05-26T14:09:31.051Z,30.70
2018-05-26T14:11:57.898Z,30.70
2018-05-26T14:14:24.753Z,30.80
2018-05-26T14:16:52.049Z,30.90
2018-05-26T14:19:18.897Z,30.90
2018-05-26T14:21:45.766Z,31.00
2018-05-26T14:24:12.639Z,31.00
2018-05-26T14:26:39.575Z,31.00
2018-05-26T14:29:06.423Z,30.50
2018-05-26T14:31:33.317Z,30.60
2018-05-26T14:34:00.199Z,30.70
2018-05-26T14:36:27.118Z,30.60
2018-05-26T14:38:53.998Z,30.40
2018-05-26T14:41:20.832Z,30.30
2018-05-26T14:43:47.775Z,30.10
2018-05-26T14:46:14.631Z,30.00
2018-05-26T14:48:41.531Z,30.00
2018-05-26T14:51:08.402Z,30.00
2018-05-26T14:53:35.725Z,30.20
2018-05-26T14:56:02.758Z,30.20
2018-05-26T14:58:30.011Z,30.70
2018-05-26T15:00:56.863Z,30.70
2018-05-26T15:03:24.170Z,30.90
2018-05-26T15:05:51.141Z,30.90
2018-05-26T15:08:18.187Z,31.10
2018-05-26T15:10:45.090Z,31.10
2018-05-26T15:13:12.072Z,31.30
2018-05-26T15:15:38.953Z,31.30
2018-05-26T15:18:05.808Z,31.40
2018-05-26T15:20:32.689Z,31.60
2018-05-26T15:22:59.541Z,31.70
2018-05-26T15:25:26.626Z,31.70
2018-05-26T15:27:53.478Z,31.50
2018-05-26T15:30:20.496Z,31.40
2018-05-26T15:32:47.734Z,31.10
2018-05-26T15:35:14.991Z,30.90
2018-05-26T15:37:41.895Z,30.90
2018-05-26T15:40:08.778Z,30.80
2018-05-26T15:42:35.655Z,31.00
2018-05-26T15:45:02.519Z,31.30
2018-05-26T15:47:29.469Z,31.40
2018-05-26T15:49:56.321Z,31.60
2018-05-26T15:52:23.248Z,31.80
2018-05-26T15:54:50.102Z,31.80
2018-05-26T15:57:16.948Z,31.60
2018-05-26T15:59:43.915Z,31.40
2018-05-26T16:02:10.761Z,31.50
2018-05-26T16:04:37.626Z,31.60
2018-05-26T16:07:04.466Z,31.70
2018-05-26T16:09:31.331Z,31.80
2018-05-26T16:11:58.204Z,31.90
2018-05-26T16:14:25.045Z,32.00
2018-05-26T16:16:51.890Z,32.30
2018-05-26T16:19:19.194Z,32.60
2018-05-26T16:21:46.113Z,32.60
2018-05-26T16:24:13.399Z,33.30
2018-05-26T16:26:40.291Z,33.30
2018-05-26T16:29:07.615Z,34.60
2018-05-26T16:31:34.899Z,35.60
2018-05-26T16:34:01.839Z,35.60
2018-05-26T16:36:29.120Z,37.50
2018-05-26T16:38:56.100Z,37.50
2018-05-26T16:41:22.942Z,38.30
2018-05-26T16:43:49.830Z,39.00
2018-05-26T16:46:16.696Z,39.50
2018-05-26T16:48:43.616Z,39.90
2018-05-26T16:51:10.511Z,40.20
2018-05-26T16:53:37.427Z,40.50
2018-05-26T16:56:04.673Z,41.00
2018-05-26T16:58:32.140Z,41.30
2018-05-26T17:00:59.043Z,41.30
2018-05-26T17:03:26.083Z,41.60
2018-05-26T17:05:52.936Z,41.80
2018-05-26T17:08:20.228Z,42.00
2018-05-26T17:10:47.098Z,42.00
2018-05-26T17:13:14.048Z,42.00
2018-05-26T17:15:40.980Z,42.00
2018-05-26T17:18:07.828Z,42.10
2018-05-26T17:20:34.727Z,42.10
2018-05-26T17:23:01.600Z,42.10
2018-05-26T17:25:28.474Z,42.10
2018-05-26T17:27:55.350Z,42.10
2018-05-26T17:30:22.714Z,42.00
2018-05-26T17:32:49.970Z,42.10
2018-05-26T17:35:17.212Z,42.20
2018-05-26T17:37:44.105Z,42.20
2018-05-26T17:40:11.344Z,41.80
2018-05-26T17:42:38.196Z,41.80
2018-05-26T17:45:05.080Z,41.60
2018-05-26T17:47:32.407Z,41.40
2018-05-26T17:49:59.494Z,41.40
2018-05-26T17:52:26.428Z,41.30
2018-05-26T17:54:53.368Z,41.00
2018-05-26T17:57:20.217Z,40.80
2018-05-26T17:59:47.049Z,40.30
2018-05-26T18:02:13.930Z,39.70
2018-05-26T18:04:41.093Z,39.00
2018-05-26T18:07:08.126Z,38.20
2018-05-26T18:09:35.395Z,36.80
2018-05-26T18:12:02.634Z,35.90
2018-05-26T18:14:29.480Z,35.90
2018-05-26T18:16:56.377Z,35.00
2018-05-26T18:19:23.671Z,33.50
2018-05-26T18:21:50.556Z,33.50
2018-05-26T18:24:17.446Z,32.80
2018-05-26T18:26:44.318Z,32.30
2018-05-26T18:29:11.635Z,31.30
2018-05-26T18:31:38.546Z,31.30
2018-05-26T18:34:05.815Z,30.50
2018-05-26T18:36:33.043Z,30.30
2018-05-26T18:39:00.012Z,30.30
2018-05-26T18:41:26.841Z,30.00
2018-05-26T18:43:53.683Z,29.80
2018-05-26T18:46:20.557Z,29.60
2018-05-26T18:48:47.525Z,29.50
2018-05-26T18:51:14.340Z,29.30
2018-05-26T18:53:41.234Z,29.30
2018-05-26T18:56:08.245Z,29.30
2018-05-26T18:58:35.095Z,29.20
2018-05-26T19:01:02.385Z,29.10
2018-05-26T19:03:29.442Z,29.10
2018-05-26T19:05:56.361Z,28.90
2018-05-26T19:08:23.391Z,28.90
2018-05-26T19:10:50.439Z,28.80
2018-05-26T19:13:17.309Z,28.70
2018-05-26T19:15:44.182Z,28.60
2018-05-26T19:18:11.108Z,28.40
2018-05-26T19:20:38.110Z,28.40
2018-05-26T19:23:05.008Z,28.30
2018-05-26T19:25:32.240Z,28.10
2018-05-26T19:27:59.134Z,28.10
2018-05-26T19:30:26.222Z,28.00
2018-05-26T19:32:53.088Z,27.90
2018-05-26T19:35:20.015Z,27.70
2018-05-26T19:37:47.358Z,27.40
2018-05-26T19:40:14.664Z,27.30
2018-05-26T19:42:41.628Z,27.30
2018-05-26T19:45:08.577Z,27.20
2018-05-26T19:47:35.440Z,27.10
2018-05-26T19:50:02.306Z,27.10
2018-05-26T19:52:29.143Z,27.00
2018-05-26T19:54:56.136Z,27.00
2018-05-26T19:57:23.058Z,27.00
2018-05-26T19:59:50.117Z,26.90
2018-05-26T20:02:16.976Z,26.80
2018-05-26T20:04:43.848Z,26.70
2018-05-26T20:07:10.810Z,26.70
2018-05-26T20:09:37.986Z,26.70
2018-05-26T20:12:04.839Z,26.60
2018-05-26T20:14:31.806Z,26.60
2018-05-26T20:16:58.651Z,26.50
2018-05-26T20:19:25.629Z,26.40
2018-05-26T20:21:52.859Z,26.30
2018-05-26T20:24:19.846Z,26.30
2018-05-26T20:26:47.576Z,26.20
2018-05-26T20:29:14.452Z,26.10
2018-05-26T20:31:41.317Z,26.00
2018-05-26T20:34:08.194Z,26.00
2018-05-26T20:36:35.039Z,26.00
2018-05-26T20:39:01.901Z,25.90
2018-05-26T20:41:28.758Z,25.80
2018-05-26T20:43:55.654Z,25.80
2018-05-26T20:46:23.073Z,25.70
2018-05-26T20:48:49.942Z,25.70
2018-05-26T20:51:16.884Z,25.70
2018-05-26T20:53:44.119Z,25.60
2018-05-26T20:56:11.046Z,25.60
2018-05-26T20:58:37.891Z,25.50
2018-05-26T21:01:04.750Z,25.40
2018-05-26T21:03:31.618Z,25.40
2018-05-26T21:05:58.488Z,25.30
2018-05-26T21:08:25.416Z,25.10
2018-05-26T21:10:52.671Z,25.10
2018-05-26T21:13:19.507Z,25.00
2018-05-26T21:15:46.998Z,25.00
2018-05-26T21:18:13.890Z,25.00
2018-05-26T21:20:40.834Z,25.00
2018-05-26T21:23:07.931Z,24.90
2018-05-26T21:25:34.861Z,24.80
2018-05-26T21:28:01.714Z,24.80
2018-05-26T21:30:28.695Z,24.70
2018-05-26T21:32:55.651Z,24.70
2018-05-26T21:35:22.535Z,24.60
2018-05-26T21:37:49.447Z,24.60
2018-05-26T21:40:16.415Z,24.50
2018-05-26T21:42:43.319Z,24.60
2018-05-26T21:45:10.159Z,24.50
2018-05-26T21:47:37.027Z,24.40
2018-05-26T21:50:04.027Z,24.30
2018-05-26T21:52:31.334Z,24.20
2018-05-26T21:54:58.576Z,24.20
2018-05-26T21:57:25.633Z,24.10
2018-05-26T21:59:52.491Z,24.10
2018-05-26T22:02:19.566Z,24.10
2018-05-26T22:04:46.446Z,24.00
2018-05-26T22:07:13.295Z,24.10
2018-05-26T22:09:40.142Z,24.10
2018-05-26T22:12:06.995Z,24.00
2018-05-26T22:14:33.983Z,24.10
2018-05-26T22:17:00.923Z,24.20
2018-05-26T22:19:27.811Z,24.20
2018-05-26T22:21:55.075Z,24.10
2018-05-26T22:24:21.929Z,24.10
2018-05-26T22:26:48.839Z,24.00
2018-05-26T22:29:15.720Z,24.00
2018-05-26T22:31:42.547Z,23.90
2018-05-26T22:34:09.396Z,23.80
2018-05-26T22:36:36.286Z,23.70
2018-05-26T22:39:03.131Z,23.70
2018-05-26T22:41:30.099Z,23.70
2018-05-26T22:43:56.947Z,23.70
2018-05-26T22:46:23.827Z,23.80
2018-05-26T22:48:50.767Z,23.80
2018-05-26T22:51:17.616Z,23.80
2018-05-26T22:53:44.478Z,23.80
2018-05-26T22:56:11.419Z,23.70
2018-05-26T22:58:38.290Z,23.60
2018-05-26T23:01:05.239Z,23.70
2018-05-26T23:03:32.171Z,23.70
2018-05-26T23:05:59.489Z,23.70
2018-05-26T23:08:26.339Z,23.60
2018-05-26T23:10:53.203Z,23.70
2018-05-26T23:13:20.049Z,23.70
2018-05-26T23:15:46.999Z,23.70
2018-05-26T23:18:13.872Z,23.70
2018-05-26T23:20:40.720Z,23.70
2018-05-26T23:23:07.617Z,23.70
2018-05-26T23:25:34.447Z,23.70
2018-05-26T23:28:01.409Z,23.70
2018-05-26T23:30:28.274Z,23.70
2018-05-26T23:32:55.123Z,23.60
2018-05-26T23:35:22.015Z,23.60
2018-05-26T23:37:48.990Z,23.60
2018-05-26T23:40:15.870Z,23.60
2018-05-26T23:42:42.741Z,23.60
2018-05-26T23:45:09.603Z,23.70
2018-05-26T23:47:36.543Z,23.60
2018-05-26T23:50:03.405Z,23.60
2018-05-26T23:52:30.265Z,23.60
2018-05-26T23:54:57.136Z,23.60
2018-05-26T23:57:24.091Z,23.50
2018-05-26T23:59:50.942Z,23.50
